Change the Weather History Date:

Thursday, August 7, 2014

  Actual Average Record
Temperature  
Mean Temperature 69 °F 73 °F  
Max Temperature 72 °F 84 °F 101 °F (1988)
Min Temperature 66 °F 62 °F 47 °F (1989)
Degree Days  
Heating Degree Days 0 0  
Month to date heating degree days 0 0  
Since 1 June heating degree days 26 30  
Since 1 July heating degree days 6 3  
Cooling Degree Days 4 9  
Month to date cooling degree days 52 63  
Year to date cooling degree days 561 608  
Since 1 June cooling degree days 440 544  
Growing Degree Days 19 (Base 50)    
Moisture  
Dew Point 66 °F    
Average Humidity 90    
Maximum Humidity 93    
Minimum Humidity 87    
Precipitation  
Precipitation 0.87 in 0.10 in 1.66 in (1991)
Month to date precipitation 3.58 0.70  
Year to date precipitation 29.09 18.01  
Snow  
Snow 0.00 in 0.00 in 0.00 in ()
Month to date snowfall 0.0 0.0  
Since 1 June snowfall 0.0 0.0  
Since 1 July snowfall 0.0 0.0  
Snow Depth 0.00 in    
Sea Level Pressure  
Sea Level Pressure 29.96 in    
Wind  
Wind Speed 8 mph (ENE)    
Max Wind Speed 13 mph    
Max Gust Speed 17 mph    
Visibility 4 miles    
Events Rain    
T = Trace of Precipitation, MM = Missing Value Source: NWS Daily Summary

Daily Weather History Graph

Daily Weather History Graph

Search for Another Location

Airport or City:

Trip Planner

Search our weather history database for the weather conditions in past years. The results will help you decide how hot, cold, wet, or windy it might be!

Date:

Astronomy

Aug. 07, 2014 Rise Set
Actual Time 6:24 AM CDT 8:37 PM CDT
Civil Twilight 5:53 AM CDT 9:08 PM CDT
Nautical Twilight 5:14 AM CDT 9:46 PM CDT
Astronomical Twilight 4:32 AM CDT 10:29 PM CDT
Moon 5:56 PM CDT (8/7) 2:54 AM CDT (8/7)
Length of Visible Light 15h 15m
Length of Day
14h 13m
Waxing Gibbous, 87% of the Moon is Illuminated
Aug 7
Waxing Gibbous
Aug 10
Full
Aug 17
Last Quarter
Aug 25
New
Sep 2
First Quarter

Hourly Weather History & Observations

Time (CDT) Temp. Dew Point Humidity Pressure Visibility Wind Dir Wind Speed Gust Speed Precip Events Conditions
12:18 AM 68.0 °F 64.9 °F 90% 29.99 in 10.0 mi East 9.2 mph - N/A   Overcast
12:52 AM 68.0 °F 64.9 °F 90% 29.98 in 10.0 mi East 6.9 mph - N/A   Overcast
1:25 AM 68.0 °F 64.9 °F 90% 29.99 in 10.0 mi East 4.6 mph - N/A   Overcast
1:52 AM 66.9 °F 64.9 °F 93% 29.97 in 10.0 mi ENE 6.9 mph - N/A   Overcast
2:03 AM 66.9 °F 64.9 °F 93% 29.98 in 8.0 mi ENE 5.8 mph - 0.00 in Rain Light Rain
2:52 AM 66.9 °F 64.9 °F 93% 29.96 in 10.0 mi ENE 6.9 mph - 0.01 in   Overcast
3:40 AM 66.9 °F 64.9 °F 93% 29.98 in 5.0 mi NE 8.1 mph - 0.00 in Rain Light Rain
3:52 AM 66.9 °F 64.9 °F 93% 29.96 in 3.0 mi NE 5.8 mph - 0.01 in Rain Light Rain
4:02 AM 66.9 °F 64.9 °F 93% 29.98 in 2.5 mi NE 6.9 mph - 0.01 in Rain Light Rain
4:09 AM 66.9 °F 64.9 °F 93% 29.97 in 2.0 mi NE 9.2 mph - 0.02 in Rain Light Rain
4:25 AM 66.9 °F 64.9 °F 93% 29.97 in 3.0 mi ENE 6.9 mph - 0.03 in Rain Light Rain
4:32 AM 66.9 °F 64.9 °F 93% 29.97 in 2.5 mi ENE 8.1 mph - 0.03 in Rain Light Rain
4:38 AM 66.9 °F 64.9 °F 93% 29.97 in 3.0 mi ENE 8.1 mph - 0.03 in Rain Light Rain
4:42 AM 66.9 °F 64.9 °F 93% 29.97 in 4.0 mi ENE 8.1 mph - 0.03 in Rain Light Rain
4:52 AM 66.9 °F 64.9 °F 93% 29.96 in 4.0 mi ENE 8.1 mph - 0.04 in Rain Light Rain
5:07 AM 66.9 °F 64.9 °F 93% 29.97 in 2.5 mi ENE 5.8 mph - 0.01 in Rain Rain
5:09 AM 66.9 °F 64.9 °F 93% 29.97 in 3.0 mi NE 4.6 mph - 0.02 in Rain Rain
5:37 AM 66.9 °F 64.9 °F 93% 29.98 in 1.8 mi ENE 6.9 mph - 0.11 in Rain Heavy Rain
5:43 AM 66.9 °F 64.9 °F 93% 29.98 in 2.0 mi ENE 8.1 mph - 0.16 in Rain Heavy Rain
5:50 AM 66.2 °F 64.4 °F 94% 29.98 in 2.5 mi East 8.1 mph - 0.18 in Rain Rain
5:52 AM 66.9 °F 64.9 °F 93% 29.96 in 2.5 mi East 8.1 mph - 0.19 in Rain Rain
6:03 AM 66.2 °F 64.4 °F 94% 29.98 in 3.0 mi ENE 8.1 mph - N/A Rain Light Rain
6:40 AM 66.9 °F 64.9 °F 93% 29.98 in 2.5 mi East 5.8 mph - 0.06 in Rain Rain
6:47 AM 66.2 °F 64.4 °F 94% 29.98 in 2.0 mi ENE 6.9 mph - 0.11 in Rain Heavy Rain
6:52 AM 66.9 °F 64.9 °F 93% 29.97 in 1.5 mi ENE 8.1 mph - 0.16 in Rain Heavy Rain
7:04 AM 66.0 °F 64.9 °F 96% 29.98 in 0.8 mi ENE 8.1 mph - 0.21 in Rain Heavy Rain
7:11 AM 66.0 °F 64.9 °F 96% 29.98 in 1.0 mi ENE 6.9 mph - 0.30 in Rain Heavy Rain
7:18 AM 66.0 °F 64.9 °F 96% 29.98 in 1.2 mi ENE 6.9 mph - 0.31 in Rain Light Rain
7:39 AM 66.0 °F 64.9 °F 96% 29.98 in 1.5 mi East 4.6 mph - 0.32 in Rain Light Rain
7:50 AM 66.2 °F 64.4 °F 94% 29.98 in 1.2 mi ENE 3.5 mph - 0.33 in Rain Light Rain
7:52 AM 66.9 °F 64.9 °F 93% 29.97 in 1.5 mi ENE 5.8 mph - 0.33 in Rain Light Rain
8:18 AM 66.9 °F 64.9 °F 93% 29.98 in 2.5 mi East 9.2 mph - 0.02 in Rain Light Rain
8:29 AM 66.9 °F 64.9 °F 93% 29.97 in 4.0 mi ENE 6.9 mph - 0.02 in Rain Light Rain
8:41 AM 66.9 °F 64.9 °F 93% 29.98 in 2.5 mi ENE 8.1 mph - 0.02 in   Overcast
8:52 AM 66.9 °F 64.9 °F 93% 29.97 in 2.5 mi East 8.1 mph - 0.02 in   Overcast
9:01 AM 66.9 °F 64.9 °F 93% 29.98 in 3.0 mi ENE 6.9 mph - N/A   Overcast
9:19 AM 66.9 °F 64.9 °F 93% 29.98 in 2.5 mi ENE 6.9 mph - 0.00 in Rain Light Rain
9:52 AM 66.9 °F 64.9 °F 93% 29.97 in 2.0 mi ENE 6.9 mph - 0.01 in Rain Light Rain
10:18 AM 68.0 °F 66.0 °F 93% 29.97 in 1.5 mi NE 9.2 mph - 0.02 in Rain Light Rain
10:42 AM 68.0 °F 66.0 °F 93% 29.97 in 2.5 mi ENE 9.2 mph - 0.03 in   Overcast
10:50 AM 68.0 °F 66.2 °F 94% 29.97 in 3.0 mi ENE 6.9 mph - 0.03 in   Overcast
10:52 AM 68.0 °F 66.0 °F 93% 29.96 in 4.0 mi ENE 8.1 mph - 0.03 in   Overcast
11:52 AM 69.1 °F 66.9 °F 93% 29.96 in 9.0 mi ENE 6.9 mph - N/A   Overcast
12:52 PM 70.0 °F 68.0 °F 93% 29.96 in 2.5 mi ENE 6.9 mph - 0.00 in Rain Light Rain
1:02 PM 70.0 °F 68.0 °F 93% 29.97 in 1.2 mi ENE 6.9 mph - 0.00 in Rain Light Rain
1:49 PM 69.8 °F 68.0 °F 94% 29.97 in 2.5 mi East 10.4 mph - 0.02 in   Overcast
1:52 PM 70.0 °F 68.0 °F 93% 29.95 in 3.0 mi East 8.1 mph - 0.02 in   Overcast
2:04 PM 70.0 °F 68.0 °F 93% 29.96 in 3.0 mi East 9.2 mph - N/A   Overcast
2:12 PM 70.0 °F 68.0 °F 93% 29.97 in 2.5 mi East 8.1 mph - N/A   Overcast
2:23 PM 70.0 °F 69.1 °F 97% 29.96 in 1.5 mi East 6.9 mph - 0.00 in Rain Light Rain
2:52 PM 70.0 °F 68.0 °F 93% 29.95 in 1.8 mi ENE 9.2 mph - 0.02 in Rain Light Rain
3:22 PM 71.1 °F 69.1 °F 93% 29.96 in 3.0 mi ENE 9.2 mph - 0.00 in Rain Light Rain
3:52 PM 72.0 °F 69.1 °F 91% 29.94 in 10.0 mi ENE 9.2 mph - 0.00 in   Overcast
4:52 PM 72.0 °F 68.0 °F 87% 29.94 in 10.0 mi East 5.8 mph - N/A   Overcast
4:59 PM 72.0 °F 68.0 °F 87% 29.95 in 10.0 mi East 5.8 mph - N/A   Overcast
5:14 PM 72.0 °F 68.0 °F 87% 29.95 in 10.0 mi East 5.8 mph - N/A   Overcast
5:28 PM 72.0 °F 68.0 °F 87% 29.95 in 10.0 mi East 5.8 mph - N/A   Overcast
5:52 PM 72.0 °F 68.0 °F 87% 29.93 in 10.0 mi East 6.9 mph - N/A   Overcast
6:00 PM 72.0 °F 68.0 °F 87% 29.94 in 9.0 mi ENE 6.9 mph - N/A   Overcast
6:41 PM 70.0 °F 68.0 °F 93% 29.94 in 2.5 mi East 9.2 mph - 0.00 in   Overcast
6:52 PM 69.8 °F 68.0 °F 94% 29.94 in 2.0 mi East 9.2 mph - N/A Rain Light Rain
7:15 PM 70.0 °F 68.0 °F 93% 29.94 in 4.0 mi East 9.2 mph - 0.00 in Rain Light Rain
7:28 PM 70.0 °F 68.0 °F 93% 29.95 in 2.0 mi East 8.1 mph - 0.01 in Rain Light Rain
7:40 PM 70.0 °F 68.0 °F 93% 29.95 in 4.0 mi East 9.2 mph - 0.01 in Rain Light Rain
7:52 PM 69.1 °F 68.0 °F 96% 29.94 in 2.5 mi ENE 10.4 mph - 0.02 in   Overcast
8:15 PM 69.1 °F 66.9 °F 93% 29.95 in 3.0 mi East 8.1 mph - N/A   Overcast
8:26 PM 69.8 °F 66.2 °F 88% 29.95 in 2.0 mi East 9.2 mph - N/A   Overcast
8:43 PM 69.1 °F 66.9 °F 93% 29.96 in 3.0 mi East 9.2 mph - 0.00 in Rain Light Rain
8:52 PM 69.1 °F 66.9 °F 93% 29.95 in 4.0 mi ENE 9.2 mph - 0.00 in   Overcast
9:52 PM 69.1 °F 66.9 °F 93% 29.95 in 7.0 mi East 9.2 mph - N/A   Overcast
10:29 PM 69.1 °F 66.9 °F 93% 29.97 in 3.0 mi ESE 6.9 mph - 0.00 in Rain Light Rain
10:52 PM 69.1 °F 66.9 °F 93% 29.96 in 10.0 mi East 9.2 mph - 0.01 in   Overcast
11:52 PM 69.1 °F 66.9 °F 93% 29.97 in 7.0 mi ESE 9.2 mph - N/A   Overcast